< < Back
Terminal Aerodrome Forecast


Current Version              Previous Versions:   1  2  3  4  5  6  7  8  9  

Terminal Aerodrome Forecast

640
FTUS42 KTAE 251100
TAFDHN
TAF
KDHN 251138Z 2512/2612 23004KT P6SM FEW030
     FM251500 26006KT P6SM SCT050 SCT250
     FM251700 26008KT P6SM VCTS BKN050CB
     FM260000 22006KT P6SM BKN250=



Latest METAR

238
SAUS70 KWBC 252000 RRC
MTRDHN
METAR KDHN 251953Z 24011KT 10SM FEW029 31/23 A3002 RMK AO2 SLP158
T03060233


USA.gov is the U.S. government's official web portal to all federal, state and local government web resources and services.